Airport View

Enter AWOS ICAO identifier for current METAR.

ex. KFNL

KSOW 030015Z AUTO 19010KT 10SM 25/03 A3023 RMK AO2 LTG DSNT N AND E

3 Jun 2020 00:23

Frequency: 118.075

Phone: 928-532-0379

Other Area AWOS: KTYL - KSJN - KJTC - KINW

TAF AMD KINW 030010Z 0300/0324 06012KT P6SM SCT110 FM030100 VRB05KT P6SM FEW110